CET,Max TemperatureF,Mean TemperatureF,Min TemperatureF,Max Dew PointF,MeanDew PointF,Min DewpointF,Max Humidity, Mean Humidity, Min Humidity, Max Sea Level PressureIn, Mean Sea Level PressureIn, Min Sea Level PressureIn, Max VisibilityMiles, Mean VisibilityMiles, Min VisibilityMiles, Max Wind SpeedMPH, Mean Wind SpeedMPH, Max Gust SpeedMPH,PrecipitationIn, CloudCover, Events, WindDirDegrees
2013-1-1,57,46,35,45,38,30,87,74,55,30.15,30.12,30.09,6,4,1,7,3,,0.00,5,,338
2013-1-2,55,52,48,50,48,45,94,87,82,30.27,30.13,30.09,6,5,3,7,3,17,0.00,5,Rain,47
2013-1-3,62,53,44,46,44,41,93,73,48,30.48,30.42,30.27,6,6,5,8,5,,0.00,2,,344
2013-1-4,57,50,41,46,43,39,93,80,63,30.48,30.38,30.27,6,5,2,7,3,,0.00,3,,343
2013-1-5,57,48,39,48,43,37,100,87,67,30.27,30.15,30.09,5,3,2,7,3,,0.00,1,,338
2013-1-6,60,51,42,50,43,37,93,72,42,30.18,30.13,30.09,5,5,4,12,6,,0.00,3,,341
2013-1-7,62,53,44,50,42,32,93,65,34,30.24,30.12,30.06,6,5,4,10,4,,0.00,2,,22
2013-1-8,57,49,41,45,38,34,82,66,41,30.30,30.24,30.21,6,6,5,6,4,,0.00,2,,332
2013-1-9,57,52,48,46,44,43,82,73,63,30.21,30.16,30.12,6,6,4,6,3,,0.00,5,,336
2013-1-10,57,54,50,50,47,45,94,81,63,30.12,29.95,29.83,6,5,4,12,3,,0.00,5,Rain,227
2013-1-11,59,52,42,52,47,41,100,83,62,29.86,29.80,29.74,6,5,2,18,4,31,0.00,4,Rain,229
2013-1-12,57,48,39,48,44,37,100,84,67,30.06,29.98,29.83,6,6,5,8,3,,0.00,2,Rain,279
2013-1-13,57,50,44,52,48,41,100,81,63,30.04,29.94,29.86,6,6,3,15,6,31,0.00,4,Rain-Thunderstorm,192
2013-1-14,59,54,48,52,49,45,88,79,67,29.95,29.87,29.80,6,6,3,18,12,31,0.00,5,Rain-Thunderstorm,209
2013-1-15,53,47,41,48,44,39,100,89,76,29.95,29.82,29.65,6,6,5,12,3,,0.00,4,Rain,355
2013-1-16,53,47,41,46,39,34,93,78,54,29.65,29.54,29.47,6,6,2,25,9,39,0.00,4,Rain-Thunderstorm,220
2013-1-17,53,47,41,48,43,39,100,85,62,29.50,29.40,29.33,6,6,3,16,4,33,0.00,6,Rain-Thunderstorm,279
2013-1-18,48,44,39,39,37,36,93,84,66,29.59,29.43,29.30,6,6,3,8,4,,0.00,3,Rain,32
2013-1-19,55,44,32,52,40,30,94,86,66,29.68,29.62,29.59,6,5,3,6,3,,0.00,5,Rain,44
2013-1-20,62,58,55,57,54,52,94,80,72,29.59,29.54,29.47,6,6,4,13,8,22,0.00,6,Rain,184
2013-1-21,55,52,50,54,49,45,100,87,72,29.59,29.47,29.36,6,5,2,17,6,21,0.00,6,Rain-Thunderstorm,253
2013-1-22,55,50,44,48,43,37,94,77,51,29.83,29.69,29.56,6,6,4,23,7,34,0.00,3,Rain,230
2013-1-23,55,47,39,46,42,37,100,87,67,29.83,29.76,29.59,6,5,1,16,4,32,0.00,4,Rain-Thunderstorm,77
2013-1-24,53,48,44,46,44,43,100,86,71,29.56,29.44,29.39,6,6,2,9,4,,0.00,5,Rain,39
2013-1-25,53,48,42,43,38,34,93,70,51,29.62,29.48,29.42,6,6,6,18,8,,0.00,4,,41
2013-1-26,50,44,37,34,31,28,81,60,47,29.86,29.69,29.59,6,6,6,10,6,,0.00,5,,24
2013-1-27,53,45,37,36,32,28,81,63,38,29.98,29.94,29.83,6,6,6,9,5,,0.00,2,,342
2013-1-28,53,45,37,45,40,34,87,79,58,30.01,29.93,29.86,6,6,4,12,4,,0.00,8,Rain,41
2013-1-29,57,50,44,46,40,36,87,67,48,30.21,30.15,30.01,6,6,5,15,8,,0.00,3,,9
2013-1-30,59,50,42,50,46,39,93,80,67,30.21,30.19,30.15,6,6,5,8,3,,0.00,3,,207
2013-1-31,64,57,50,54,50,48,100,81,63,30.21,30.16,30.12,6,5,3,7,4,,0.00,3,,218